Time;durP1;ratioP1;P1;durP2;ratioP2;P2;SDS_P1;SDS_P2;PMS_P1;PMS_P2;Temp;Humidity;BMP_temperature;BMP_pressure;BME280_temperature;BME280_humidity;BME280_pressure;Samples;Min_cycle;Max_cycle;Signal;HPM_P1;HPM_P2
2022/11/06 00:00:40;;;;;;;20.00;12.18;;;;;;;7.32;100.00;100817.31;5041332;28;20079;-74
2022/11/06 00:03:07;;;;;;;18.63;11.70;;;;;;;7.30;100.00;100809.47;5032355;28;20043;-78
2022/11/06 00:08:37;;;;;;;23.30;11.82;;;;;;;7.49;100.00;100788.75;5040408;28;20064;-74
2022/11/06 00:11:14;;;;;;;19.40;11.27;;;;;;;7.53;100.00;100779.84;5037542;28;20077;-77
2022/11/06 00:13:42;;;;;;;19.85;11.18;;;;;;;7.56;100.00;100774.47;5034509;28;20398;-76
2022/11/06 00:16:11;;;;;;;19.60;11.32;;;;;;;7.63;100.00;100777.81;5042037;28;20045;-76
2022/11/06 00:18:39;;;;;;;15.65;10.70;;;;;;;7.67;100.00;100776.81;5037667;28;20055;-77
2022/11/06 00:21:18;;;;;;;20.98;11.30;;;;;;;7.62;100.00;100782.22;5046586;28;20154;-78
2022/11/06 00:23:46;;;;;;;19.77;11.65;;;;;;;7.60;100.00;100772.63;5035354;28;20661;-73
2022/11/06 00:26:17;;;;;;;17.98;10.13;;;;;;;7.58;100.00;100766.53;5046713;28;20049;-78
2022/11/06 00:28:43;;;;;;;19.25;11.40;;;;;;;7.57;100.00;100763.03;5047091;28;20057;-78
2022/11/06 00:31:13;;;;;;;21.75;11.38;;;;;;;7.57;100.00;100756.88;5035316;28;20114;-76
2022/11/06 00:33:41;;;;;;;18.30;11.07;;;;;;;7.57;100.00;100759.53;5032968;28;20040;-74
2022/11/06 00:36:11;;;;;;;18.05;10.50;;;;;;;7.52;100.00;100762.31;5039527;28;20118;-75
2022/11/06 00:38:38;;;;;;;18.73;11.15;;;;;;;7.53;100.00;100763.19;5039818;28;20133;-75
2022/11/06 00:41:15;;;;;;;18.00;10.95;;;;;;;7.51;100.00;100762.34;5048525;28;20493;-71
2022/11/06 00:43:50;;;;;;;17.65;11.27;;;;;;;7.37;100.00;100733.78;5029701;28;20351;-77
2022/11/06 00:46:17;;;;;;;17.35;10.80;;;;;;;7.49;100.00;100756.25;5042237;28;20124;-73
2022/11/06 00:48:45;;;;;;;16.60;10.70;;;;;;;7.44;100.00;100751.13;5039089;28;20053;-75
2022/11/06 00:51:18;;;;;;;22.48;10.88;;;;;;;7.38;100.00;100752.16;5045701;28;20091;-73
2022/11/06 00:53:45;;;;;;;17.45;10.88;;;;;;;7.37;100.00;100754.84;5039524;28;20516;-77
2022/11/06 00:56:15;;;;;;;17.40;11.02;;;;;;;7.39;100.00;100746.00;5050270;28;20044;-78
2022/11/06 00:58:42;;;;;;;17.43;10.73;;;;;;;7.35;100.00;100732.94;5053963;28;20076;-74
2022/11/06 01:01:18;;;;;;;18.55;10.32;;;;;;;7.36;100.00;100755.75;5045103;28;20852;-78
2022/11/06 01:03:47;;;;;;;15.80;9.75;;;;;;;7.29;100.00;100754.19;5052306;28;20056;-76
2022/11/06 01:06:19;;;;;;;17.90;10.77;;;;;;;7.27;100.00;100753.34;5052959;28;20132;-70
2022/11/06 01:08:46;;;;;;;19.40;11.10;;;;;;;7.25;100.00;100747.25;5045893;28;20048;-76
2022/11/06 01:11:30;;;;;;;23.70;11.80;;;;;;;7.21;100.00;100743.88;5046502;28;20079;-74
2022/11/06 01:14:19;;;;;;;17.95;10.90;;;;;;;7.23;100.00;100747.34;5045371;28;20049;-78
2022/11/06 01:16:47;;;;;;;18.98;10.75;;;;;;;7.14;100.00;100750.19;5043787;28;20464;-74
2022/11/06 01:19:16;;;;;;;18.02;10.55;;;;;;;6.88;100.00;100721.94;5052065;28;20061;-74
2022/11/06 01:21:44;;;;;;;16.88;10.75;;;;;;;6.92;100.00;100733.28;5046608;28;20053;-69
2022/11/06 01:24:14;;;;;;;20.33;10.77;;;;;;;6.93;100.00;100734.97;5032607;28;20051;-77
2022/11/06 01:26:41;;;;;;;16.03;10.63;;;;;;;7.03;100.00;100741.75;5040540;28;20046;-76
2022/11/06 01:29:27;;;;;;;18.60;10.50;;;;;;;7.02;100.00;100755.81;5046219;28;20132;-73
2022/11/06 01:31:54;;;;;;;18.38;11.27;;;;;;;6.90;100.00;100756.13;5047829;28;20049;-71
2022/11/06 01:34:21;;;;;;;20.65;11.38;;;;;;;6.82;100.00;100765.97;5040897;28;20041;-75
2022/11/06 01:36:47;;;;;;;22.02;13.52;;;;;;;6.69;100.00;100761.03;5047086;28;20144;-75
2022/11/06 01:39:15;;;;;;;21.30;12.75;;;;;;;6.58;100.00;100755.19;5053434;28;20068;-76
2022/11/06 01:41:48;;;;;;;24.70;13.23;;;;;;;6.49;100.00;100763.28;5048439;28;20049;-76
2022/11/06 01:45:22;;;;;;;24.77;12.82;;;;;;;6.40;100.00;100760.91;5038208;28;20072;-72
2022/11/06 01:47:49;;;;;;;21.95;14.10;;;;;;;6.25;100.00;100740.22;4969658;28;20552;-77
2022/11/06 01:50:16;;;;;;;25.85;13.98;;;;;;;6.30;100.00;100767.25;5055003;28;20055;-75
2022/11/06 01:52:45;;;;;;;22.60;13.20;;;;;;;6.26;100.00;100758.59;5043630;28;20148;-76
2022/11/06 01:55:17;;;;;;;23.23;13.82;;;;;;;6.10;100.00;100736.19;5044624;28;20141;-75
2022/11/06 01:57:45;;;;;;;28.70;13.07;;;;;;;6.24;100.00;100741.97;5059153;28;20413;-75
2022/11/06 02:00:12;;;;;;;21.65;12.60;;;;;;;6.21;100.00;100728.03;5052923;28;20157;-74
2022/11/06 02:02:39;;;;;;;19.13;12.23;;;;;;;6.36;100.00;100732.06;5040426;28;20164;-77
2022/11/06 02:05:07;;;;;;;26.98;13.90;;;;;;;6.47;100.00;100727.41;5045094;28;20080;-79
2022/11/06 02:07:34;;;;;;;26.73;13.70;;;;;;;6.55;100.00;100739.47;5047816;28;20049;-73
2022/11/06 02:10:01;;;;;;;21.60;13.02;;;;;;;6.43;100.00;100718.75;5056890;28;20132;-73
2022/11/06 02:12:39;;;;;;;24.52;13.68;;;;;;;6.56;100.00;100729.81;5049575;28;20076;-73
2022/11/06 02:15:29;;;;;;;22.20;13.52;;;;;;;6.57;100.00;100744.69;5043845;28;20128;-75
2022/11/06 02:18:25;;;;;;;28.50;14.55;;;;;;;6.56;100.00;100733.31;5038654;28;20152;-75
2022/11/06 02:20:57;;;;;;;23.70;14.82;;;;;;;6.51;100.00;100724.66;5026971;28;20400;-78
2022/11/06 02:23:34;;;;;;;26.23;14.70;;;;;;;6.52;100.00;100721.13;5034442;28;20049;-75
2022/11/06 02:26:24;;;;;;;23.63;14.82;;;;;;;6.36;100.00;100698.72;5046695;28;20117;-78
2022/11/06 02:29:12;;;;;;;25.52;13.82;;;;;;;6.53;100.00;100709.69;5059872;28;20051;-78
2022/11/06 02:31:41;;;;;;;27.77;14.35;;;;;;;6.56;100.00;100703.50;5043027;28;20457;-74
2022/11/06 02:34:13;;;;;;;29.13;14.45;;;;;;;6.67;100.00;100711.97;5040199;28;20135;-75
2022/11/06 02:37:00;;;;;;;24.17;14.57;;;;;;;6.75;100.00;100701.25;5046659;28;20049;-77
2022/11/06 02:39:31;;;;;;;24.83;14.57;;;;;;;6.74;100.00;100699.53;5046656;28;20057;-75
2022/11/06 02:41:59;;;;;;;22.00;13.52;;;;;;;6.76;100.00;100689.84;5044152;28;20132;-78
2022/11/06 02:44:30;;;;;;;24.13;14.48;;;;;;;6.82;100.00;100702.81;5045207;28;20045;-75
2022/11/06 02:47:03;;;;;;;25.02;14.55;;;;;;;6.79;100.00;100710.78;5035911;28;20121;-74
2022/11/06 02:49:42;;;;;;;27.75;15.30;;;;;;;6.66;100.00;100712.88;5053464;28;20413;-78
2022/11/06 02:52:22;;;;;;;26.90;15.55;;;;;;;6.59;100.00;100703.44;5049309;28;20136;-76
2022/11/06 02:54:56;;;;;;;25.65;15.40;;;;;;;6.53;100.00;100693.91;5040175;28;20128;-78
2022/11/06 02:57:26;;;;;;;25.75;15.23;;;;;;;6.51;100.00;100690.44;5051823;28;20052;-72
2022/11/06 03:00:04;;;;;;;28.83;16.02;;;;;;;6.46;100.00;100697.59;5056803;28;20058;-74
2022/11/06 03:02:54;;;;;;;27.10;16.40;;;;;;;6.43;100.00;100702.09;5047981;28;20131;-71
2022/11/06 03:05:35;;;;;;;27.35;15.40;;;;;;;6.42;100.00;100700.34;5045433;28;20049;-77
2022/11/06 03:08:08;;;;;;;23.58;15.43;;;;;;;6.48;100.00;100700.19;5042201;28;20051;-71
2022/11/06 03:11:06;;;;;;;27.63;15.00;;;;;;;6.48;100.00;100697.56;5048367;28;20045;-74
2022/11/06 03:13:53;;;;;;;24.38;15.45;;;;;;;6.43;100.00;100700.31;5047247;28;20045;-76
2022/11/06 03:16:56;;;;;;;25.90;15.55;;;;;;;6.34;100.00;100704.03;5043064;28;20047;-75
2022/11/06 03:19:32;;;;;;;25.35;15.55;;;;;;;6.33;100.00;100712.81;5046818;28;20132;-74
2022/11/06 03:22:13;;;;;;;28.67;16.83;;;;;;;6.20;100.00;100690.34;5052509;28;20043;-77
2022/11/06 03:24:45;;;;;;;29.35;16.10;;;;;;;6.36;100.00;100716.28;5034876;28;20060;-75
2022/11/06 03:27:19;;;;;;;28.27;15.85;;;;;;;6.39;100.00;100717.06;5044455;28;20040;-77
2022/11/06 03:29:51;;;;;;;28.77;15.60;;;;;;;6.47;100.00;100694.06;5048321;28;20129;-78
2022/11/06 03:32:26;;;;;;;26.50;16.08;;;;;;;6.57;100.00;100689.44;5043347;28;20120;-78
2022/11/06 03:35:11;;;;;;;28.45;17.23;;;;;;;6.52;100.00;100667.66;5042997;28;20479;-74
2022/11/06 03:37:45;;;;;;;30.00;15.30;;;;;;;6.60;100.00;100687.59;5053224;28;20140;-76
2022/11/06 03:40:16;;;;;;;28.15;15.40;;;;;;;6.49;100.00;100680.88;5065038;28;20070;-72
2022/11/06 03:42:45;;;;;;;27.95;16.02;;;;;;;6.45;100.00;100688.00;5057903;28;20061;-71
2022/11/06 03:45:18;;;;;;;26.30;16.45;;;;;;;6.30;100.00;100685.72;5045260;28;20096;-73
2022/11/06 03:47:52;;;;;;;28.50;16.10;;;;;;;6.14;100.00;100681.78;5053793;28;20123;-75
2022/11/06 03:50:29;;;;;;;30.55;16.33;;;;;;;6.09;100.00;100692.41;5053554;28;20076;-79
2022/11/06 03:53:13;;;;;;;26.85;16.05;;;;;;;6.15;100.00;100694.00;5041002;28;20049;-71
2022/11/06 03:55:51;;;;;;;28.73;15.60;;;;;;;6.18;100.00;100696.56;5042919;28;20063;-76
2022/11/06 03:58:23;;;;;;;27.45;16.42;;;;;;;6.09;100.00;100691.53;5054846;28;20059;-73
2022/11/06 04:00:53;;;;;;;29.58;17.10;;;;;;;6.01;100.00;100688.19;5052670;28;20064;-76
2022/11/06 04:03:28;;;;;;;28.75;16.55;;;;;;;5.93;100.00;100683.13;5030918;28;20059;-74
2022/11/06 04:06:04;;;;;;;32.17;16.00;;;;;;;5.90;100.00;100685.84;5045563;28;20131;-71
2022/11/06 04:14:07;;;;;;;30.85;16.98;;;;;;;5.97;100.00;100667.28;5032292;28;20136;-74
2022/11/06 04:16:37;;;;;;;34.10;16.58;;;;;;;5.76;100.00;100646.69;5047505;28;20061;-73
2022/11/06 04:19:18;;;;;;;27.30;16.48;;;;;;;5.86;100.00;100663.09;5045502;28;20477;-73
2022/11/06 04:22:03;;;;;;;29.08;16.95;;;;;;;5.81;100.00;100660.59;5051291;28;20493;-78
2022/11/06 04:27:35;;;;;;;29.35;16.45;;;;;;;5.86;100.00;100666.59;5046236;28;20077;-75
2022/11/06 04:30:13;;;;;;;31.50;16.20;;;;;;;5.94;100.00;100664.72;5045386;28;20447;-76
2022/11/06 04:33:03;;;;;;;29.73;16.63;;;;;;;5.85;100.00;100657.00;5042760;28;20079;-75
2022/11/06 04:35:36;;;;;;;32.00;16.52;;;;;;;5.79;100.00;100662.41;5039276;28;20053;-73
2022/11/06 04:38:19;;;;;;;31.17;16.25;;;;;;;5.73;100.00;100672.19;5042558;28;20051;-77
2022/11/06 04:41:17;;;;;;;27.45;15.57;;;;;;;5.66;100.00;100681.13;5051031;28;20064;-73
2022/11/06 04:43:49;;;;;;;28.52;17.15;;;;;;;5.58;100.00;100684.75;5038001;28;20053;-70
2022/11/06 04:46:23;;;;;;;26.25;17.08;;;;;;;5.55;100.00;100686.59;5040221;28;20488;-74
2022/11/06 04:48:50;;;;;;;30.00;16.40;;;;;;;5.52;100.00;100684.00;5052406;28;20108;-78
2022/11/06 04:51:22;;;;;;;27.67;16.63;;;;;;;5.36;100.00;100664.22;5048735;28;20053;-70
2022/11/06 04:53:52;;;;;;;34.60;18.50;;;;;;;5.50;100.00;100702.47;5041730;28;20109;-70
2022/11/06 04:56:28;;;;;;;34.08;17.67;;;;;;;5.49;100.00;100684.97;5039359;28;20052;-78
2022/11/06 04:58:56;;;;;;;29.83;17.60;;;;;;;5.47;100.00;100667.50;5045558;28;20088;-77
2022/11/06 05:01:22;;;;;;;28.63;17.15;;;;;;;5.54;100.00;100674.34;5044573;28;20143;-75
2022/11/06 05:03:49;;;;;;;28.98;17.92;;;;;;;5.56;100.00;100675.19;5044248;28;20225;-74
2022/11/06 05:06:16;;;;;;;32.35;18.70;;;;;;;5.53;100.00;100677.88;5040760;28;20048;-78
2022/11/06 05:08:43;;;;;;;30.25;16.80;;;;;;;5.55;100.00;100679.56;5040705;28;20048;-75
2022/11/06 05:11:10;;;;;;;26.23;16.60;;;;;;;5.48;100.00;100662.22;5047715;28;20055;-77
2022/11/06 05:13:37;;;;;;;27.73;16.35;;;;;;;5.67;100.00;100683.69;5043496;28;20059;-76
2022/11/06 05:16:04;;;;;;;32.97;17.70;;;;;;;5.72;100.00;100687.06;5040612;28;20068;-75
2022/11/06 05:18:31;;;;;;;28.98;17.20;;;;;;;5.79;100.00;100690.44;5050614;28;20190;-78
2022/11/06 05:23:45;;;;;;;30.33;16.80;;;;;;;5.66;100.00;100691.63;5046911;28;20105;-72
2022/11/06 05:26:12;;;;;;;27.23;16.45;;;;;;;5.42;100.00;100661.50;5043031;28;20052;-73
2022/11/06 05:28:39;;;;;;;30.75;17.63;;;;;;;5.29;100.00;100656.50;5043194;28;20458;-77
2022/11/06 05:31:05;;;;;;;28.52;17.88;;;;;;;5.37;100.00;100677.34;5041185;28;20049;-76
2022/11/06 05:33:32;;;;;;;35.70;18.55;;;;;;;5.33;100.00;100680.94;5043572;28;20050;-77
2022/11/06 05:36:03;;;;;;;35.35;17.75;;;;;;;5.30;100.00;100670.50;5041313;28;20128;-72
2022/11/06 05:38:30;;;;;;;29.00;17.15;;;;;;;5.34;100.00;100664.28;5043663;28;20046;-72
2022/11/06 05:40:57;;;;;;;30.60;17.67;;;;;;;5.35;100.00;100646.78;5049660;28;20055;-75
2022/11/06 05:43:24;;;;;;;31.45;17.23;;;;;;;5.45;100.00;100650.91;5048389;28;20144;-68
2022/11/06 05:45:51;;;;;;;29.10;17.52;;;;;;;5.47;100.00;100647.38;5032085;28;20125;-72
2022/11/06 05:48:18;;;;;;;29.70;17.80;;;;;;;5.55;100.00;100642.78;5051246;28;20128;-74
2022/11/06 05:50:44;;;;;;;26.38;16.23;;;;;;;5.59;100.00;100648.84;5048715;28;20049;-69
2022/11/06 05:53:11;;;;;;;27.17;16.73;;;;;;;5.47;100.00;100630.75;5048159;28;20092;-78
2022/11/06 05:55:38;;;;;;;26.05;15.45;;;;;;;5.58;100.00;100657.63;5034252;28;20080;-74
2022/11/06 05:58:04;;;;;;;26.70;15.40;;;;;;;5.62;100.00;100654.03;5056335;28;20060;-77
2022/11/06 06:00:31;;;;;;;27.15;15.63;;;;;;;5.62;100.00;100654.03;5052201;28;20133;-73
2022/11/06 06:02:58;;;;;;;24.08;15.30;;;;;;;5.56;100.00;100648.91;5042564;28;20047;-74
2022/11/06 06:05:24;;;;;;;25.30;15.55;;;;;;;5.47;100.00;100628.97;5038672;28;20435;-75
2022/11/06 06:07:51;;;;;;;26.23;15.45;;;;;;;5.68;100.00;100638.13;5038981;28;20489;-77
2022/11/06 06:10:17;;;;;;;25.00;14.55;;;;;;;5.70;100.00;100638.09;5038726;28;20352;-78
2022/11/06 06:12:44;;;;;;;27.13;15.40;;;;;;;5.70;100.00;100625.81;5048404;28;20045;-74
2022/11/06 06:15:13;;;;;;;28.10;15.70;;;;;;;5.70;100.00;100609.19;5038311;28;20117;-74
2022/11/06 06:17:40;;;;;;;25.77;14.45;;;;;;;5.73;100.00;100609.13;5044141;28;20053;-76
2022/11/06 06:20:07;;;;;;;24.42;14.45;;;;;;;5.78;100.00;100610.75;5048964;28;20135;-72
2022/11/06 06:22:34;;;;;;;29.67;15.02;;;;;;;5.60;100.00;100582.28;5044033;28;20401;-78
2022/11/06 06:25:00;;;;;;;24.15;14.40;;;;;;;5.70;100.00;100604.78;5033613;28;20140;-74
2022/11/06 06:27:27;;;;;;;25.20;14.55;;;;;;;5.71;100.00;100605.66;5041900;28;20498;-69
2022/11/06 06:29:54;;;;;;;27.13;14.68;;;;;;;5.73;100.00;100624.88;5046483;28;20137;-72
2022/11/06 06:32:20;;;;;;;21.63;13.60;;;;;;;5.68;100.00;100617.09;5039966;28;20053;-75
2022/11/06 06:34:47;;;;;;;26.95;14.55;;;;;;;5.70;100.00;100604.78;5044027;28;20056;-76
2022/11/06 06:37:14;;;;;;;24.38;14.20;;;;;;;5.61;100.00;100584.00;5044947;28;20049;-76
2022/11/06 06:39:46;;;;;;;26.75;15.00;;;;;;;5.59;100.00;100562.16;5049715;28;20059;-77
2022/11/06 06:42:12;;;;;;;24.02;14.23;;;;;;;5.73;100.00;100588.09;5038021;28;21616;-76
2022/11/06 06:44:39;;;;;;;21.38;13.85;;;;;;;5.74;100.00;100580.19;5041922;28;20103;-70
2022/11/06 06:47:06;;;;;;;23.33;13.68;;;;;;;5.74;100.00;100574.94;5034728;28;20469;-77
2022/11/06 06:49:34;;;;;;;21.90;14.18;;;;;;;5.73;100.00;100574.97;5052729;28;20041;-69
2022/11/06 06:52:01;;;;;;;27.92;14.55;;;;;;;5.64;100.00;100568.19;5042234;28;20080;-75
2022/11/06 06:54:27;;;;;;;24.95;14.80;;;;;;;5.46;100.00;100545.84;5038855;28;20048;-77
2022/11/06 06:56:54;;;;;;;22.55;13.73;;;;;;;5.38;100.00;100539.03;5043558;28;20047;-74
2022/11/06 06:59:20;;;;;;;27.35;14.60;;;;;;;5.45;100.00;100559.88;5049955;28;20057;-78
2022/11/06 07:01:47;;;;;;;29.38;15.52;;;;;;;5.40;100.00;100571.38;5044978;28;20059;-75
2022/11/06 07:04:14;;;;;;;27.48;15.48;;;;;;;5.26;100.00;100545.44;5046791;28;20052;-76
2022/11/06 07:06:40;;;;;;;26.20;15.15;;;;;;;5.34;100.00;100575.00;5040123;28;20053;-73
2022/11/06 07:09:08;;;;;;;26.88;15.30;;;;;;;5.31;100.00;100569.81;5046458;28;20068;-79
2022/11/06 07:11:35;;;;;;;27.85;15.57;;;;;;;5.28;100.00;100559.38;5034233;28;20041;-71
2022/11/06 07:14:01;;;;;;;28.40;15.85;;;;;;;5.38;100.00;100566.16;5044698;28;20134;-73
2022/11/06 07:16:28;;;;;;;29.52;15.98;;;;;;;5.37;100.00;100564.41;5034146;28;20088;-75
2022/11/06 07:18:55;;;;;;;26.05;15.95;;;;;;;5.38;100.00;100552.16;5046584;28;20049;-74
2022/11/06 07:21:22;;;;;;;29.63;15.25;;;;;;;5.51;100.00;100570.19;5048069;28;20055;-72
2022/11/06 07:23:49;;;;;;;26.83;15.68;;;;;;;5.44;100.00;100544.13;5035948;28;20179;-74
2022/11/06 07:26:16;;;;;;;27.27;16.48;;;;;;;5.64;100.00;100576.06;5034587;28;20071;-78
2022/11/06 07:28:42;;;;;;;31.90;17.27;;;;;;;5.62;100.00;100569.97;5042736;28;20045;-77
2022/11/06 07:31:11;;;;;;;30.50;17.38;;;;;;;5.60;100.00;100571.78;5044951;28;20053;-69
2022/11/06 07:33:38;;;;;;;38.03;18.40;;;;;;;5.59;100.00;100564.78;5043782;28;20140;-79
2022/11/06 07:36:10;;;;;;;32.53;18.60;;;;;;;5.62;100.00;100560.34;5033205;28;20049;-77
2022/11/06 07:38:39;;;;;;;35.03;17.80;;;;;;;5.75;100.00;100555.63;5041641;28;20045;-74
2022/11/06 07:41:08;;;;;;;32.85;17.50;;;;;;;6.00;100.00;100555.91;5051118;28;20045;-76
2022/11/06 07:43:35;;;;;;;28.47;17.07;;;;;;;6.13;100.00;100559.97;5042609;28;20056;-79
2022/11/06 07:46:05;;;;;;;27.88;16.88;;;;;;;6.24;100.00;100560.53;5035517;28;20045;-72
2022/11/06 07:48:32;;;;;;;31.55;17.08;;;;;;;6.21;100.00;100541.34;5041494;28;20047;-79
2022/11/06 07:51:03;;;;;;;27.85;17.25;;;;;;;6.22;100.00;100535.19;5044889;28;20041;-76
2022/11/06 07:53:30;;;;;;;30.02;16.95;;;;;;;6.31;100.00;100555.94;5043681;28;20079;-71
2022/11/06 07:55:56;;;;;;;28.15;17.65;;;;;;;6.13;100.00;100531.03;5035757;28;20076;-76
2022/11/06 07:58:24;;;;;;;31.10;18.55;;;;;;;6.20;100.00;100556.25;5043453;28;20049;-76
2022/11/06 08:00:55;;;;;;;27.45;17.58;;;;;;;6.15;100.00;100558.13;5042499;28;20102;-76
2022/11/06 08:03:23;;;;;;;28.33;18.10;;;;;;;6.08;100.00;100559.22;5043458;28;20059;-76
2022/11/06 08:05:50;;;;;;;29.35;18.13;;;;;;;6.04;100.00;100562.81;5033225;28;20401;-71
2022/11/06 08:08:17;;;;;;;33.03;18.42;;;;;;;6.01;100.00;100562.03;5041454;28;20057;-77
2022/11/06 08:10:46;;;;;;;32.00;19.50;;;;;;;5.94;100.00;100562.19;5047936;28;20470;-72
2022/11/06 08:13:16;;;;;;;30.42;18.58;;;;;;;5.95;100.00;100566.56;5042304;28;20049;-76
2022/11/06 08:15:43;;;;;;;31.35;18.38;;;;;;;5.97;100.00;100559.50;5034147;28;20068;-77
2022/11/06 08:18:11;;;;;;;31.10;17.95;;;;;;;6.10;100.00;100567.06;5041851;28;20043;-78
2022/11/06 08:20:39;;;;;;;29.20;17.08;;;;;;;6.09;100.00;100558.31;5044567;28;20041;-77
2022/11/06 08:23:07;;;;;;;27.42;17.42;;;;;;;6.16;100.00;100561.63;5042999;28;20043;-73
2022/11/06 08:25:34;;;;;;;29.30;18.20;;;;;;;6.24;100.00;100564.94;5039108;28;20045;-77
2022/11/06 08:28:02;;;;;;;28.35;17.40;;;;;;;6.29;100.00;100570.94;5038834;28;20076;-77
2022/11/06 08:30:30;;;;;;;26.63;16.27;;;;;;;6.32;100.00;100568.19;5043286;28;20053;-74
2022/11/06 08:33:02;;;;;;;25.88;16.63;;;;;;;6.35;100.00;100562.88;5039459;28;20060;-73
2022/11/06 08:35:29;;;;;;;29.73;17.15;;;;;;;6.31;100.00;100562.06;5034956;28;20060;-70
2022/11/06 08:37:56;;;;;;;28.73;16.23;;;;;;;6.24;100.00;100546.53;5059017;28;20125;-76
2022/11/06 08:40:23;;;;;;;30.13;17.45;;;;;;;6.40;100.00;100566.25;5044309;28;20055;-74
2022/11/06 08:43:04;;;;;;;28.20;17.38;;;;;;;6.45;100.00;100563.50;5040018;28;20769;-78
2022/11/06 08:45:31;;;;;;;28.98;17.77;;;;;;;6.49;100.00;100552.81;5039087;28;20123;-71
2022/11/06 08:48:02;;;;;;;29.15;17.60;;;;;;;6.57;100.00;100536.84;5047209;28;20481;-78
2022/11/06 08:50:32;;;;;;;30.83;18.95;;;;;;;6.78;100.00;100551.13;5052233;28;20051;-75
2022/11/06 08:53:02;;;;;;;30.55;16.85;;;;;;;6.74;100.00;100524.06;5050246;28;20127;-76
2022/11/06 08:55:30;;;;;;;27.33;16.67;;;;;;;6.93;100.00;100548.06;5038125;28;20389;-73
2022/11/06 08:57:56;;;;;;;26.13;16.75;;;;;;;7.10;100.00;100535.25;5038525;28;20485;-73
2022/11/06 09:00:23;;;;;;;25.77;16.77;;;;;;;7.19;100.00;100537.63;5052326;28;20132;-77
2022/11/06 09:02:50;;;;;;;29.38;17.08;;;;;;;7.17;100.00;100531.53;5039367;28;20045;-73
2022/11/06 09:05:17;;;;;;;26.40;16.25;;;;;;;7.10;100.00;100532.63;5042245;28;20049;-72
2022/11/06 09:07:44;;;;;;;26.23;15.52;;;;;;;7.11;100.00;100522.94;5041695;28;20076;-76
2022/11/06 09:10:11;;;;;;;26.80;15.45;;;;;;;7.20;100.00;100525.31;5041701;28;20057;-72
2022/11/06 09:12:37;;;;;;;23.50;14.43;;;;;;;7.33;100.00;100522.25;5037936;28;20163;-76
2022/11/06 09:15:04;;;;;;;20.33;14.35;;;;;;;7.42;100.00;100517.56;5042782;28;20060;-74
2022/11/06 09:17:31;;;;;;;19.40;13.48;;;;;;;7.53;100.00;100511.06;5029751;28;20048;-75
2022/11/06 09:19:58;;;;;;;20.60;13.68;;;;;;;7.79;100.00;100528.66;5040528;28;20478;-73
2022/11/06 09:22:24;;;;;;;22.35;14.15;;;;;;;7.80;100.00;100516.34;5032869;28;20076;-77
2022/11/06 09:24:51;;;;;;;25.75;15.95;;;;;;;7.87;100.00;100516.06;5046526;28;20036;-76
2022/11/06 09:27:42;;;;;;;24.48;16.25;;;;;;;7.97;100.00;100506.94;5034766;28;20045;-68
2022/11/06 09:30:11;;;;;;;21.75;13.82;;;;;;;7.82;100.00;100501.31;5038907;28;20054;-80
2022/11/06 09:32:38;;;;;;;19.50;11.05;;;;;;;7.61;100.00;100472.13;5040447;28;20044;-73
2022/11/06 09:35:05;;;;;;;22.00;13.43;;;;;;;7.92;100.00;100494.81;5034136;28;20067;-77
2022/11/06 09:37:32;;;;;;;20.65;13.70;;;;;;;8.20;100.00;100485.00;5032994;28;20056;-74
2022/11/06 09:39:58;;;;;;;21.13;12.63;;;;;;;8.42;100.00;100479.88;5037314;28;20053;-74
2022/11/06 09:43:09;;;;;;;21.13;13.27;;;;;;;8.55;100.00;100460.00;5036706;28;20125;-78
2022/11/06 09:45:38;;;;;;;17.55;12.38;;;;;;;8.71;100.00;100447.09;5035061;28;20063;-81
2022/11/06 09:48:16;;;;;;;22.75;13.60;;;;;;;8.82;100.00;100459.88;5034291;28;20369;-78
2022/11/06 09:51:05;;;;;;;18.75;12.38;;;;;;;8.86;100.00;100457.06;5042745;28;20053;-78
2022/11/06 09:53:43;;;;;;;18.27;11.75;;;;;;;8.92;100.00;100450.69;5051384;28;20049;-76
2022/11/06 09:56:12;;;;;;;18.90;11.43;;;;;;;9.06;100.00;100448.34;5029705;28;20850;-75
2022/11/06 09:58:42;;;;;;;19.13;11.02;;;;;;;9.14;100.00;100438.31;5047664;28;20061;-79
2022/11/06 10:01:17;;;;;;;16.27;10.80;;;;;;;9.06;100.00;100443.06;5034686;28;20105;-79
2022/11/06 10:04:00;;;;;;;16.10;9.45;;;;;;;9.12;100.00;100433.13;5027660;28;20040;-74
2022/11/06 10:06:28;;;;;;;13.82;8.52;;;;;;;9.09;99.29;100411.25;5036110;28;20045;-74
2022/11/06 10:08:59;;;;;;;13.25;8.57;;;;;;;9.10;99.80;100437.63;5038659;28;20442;-75
2022/11/06 10:12:00;;;;;;;13.88;9.00;;;;;;;9.22;100.00;100420.41;5037902;28;20061;-69
2022/11/06 10:14:39;;;;;;;13.65;8.60;;;;;;;9.37;99.39;100421.56;5036355;28;20186;-72
2022/11/06 10:17:23;;;;;;;13.13;7.57;;;;;;;9.39;98.31;100422.34;5034059;28;20041;-74
2022/11/06 10:20:03;;;;;;;11.00;8.20;;;;;;;9.56;98.47;100409.28;5048062;28;20041;-71
2022/11/06 10:22:39;;;;;;;11.43;7.28;;;;;;;9.81;95.55;100390.56;5054804;28;20130;-77
2022/11/06 10:25:17;;;;;;;10.45;6.30;;;;;;;9.88;93.35;100397.31;5052671;28;20045;-73
2022/11/06 10:28:00;;;;;;;21.98;10.73;;;;;;;9.90;92.38;100391.97;5044268;28;20563;-75
2022/11/06 10:30:44;;;;;;;11.18;6.50;;;;;;;9.86;92.22;100383.28;5051810;28;20041;-73
2022/11/06 10:33:41;;;;;;;9.63;5.50;;;;;;;9.62;91.39;100363.19;5047883;28;20491;-78
2022/11/06 10:36:37;;;;;;;7.20;5.15;;;;;;;9.93;92.63;100379.44;5035148;28;20589;-77
2022/11/06 10:39:14;;;;;;;9.57;5.07;;;;;;;10.04;90.82;100385.13;5049444;28;20045;-76
2022/11/06 10:41:46;;;;;;;8.48;5.20;;;;;;;10.16;89.26;100381.06;5053823;28;20140;-77
2022/11/06 10:44:24;;;;;;;14.75;6.15;;;;;;;10.22;87.99;100378.19;5056797;28;20664;-77
2022/11/06 10:47:05;;;;;;;7.93;5.40;;;;;;;10.31;89.22;100369.81;5037015;28;20112;-76
2022/11/06 10:49:43;;;;;;;7.80;5.20;;;;;;;10.49;87.42;100373.38;5057012;28;20355;-74
2022/11/06 10:52:29;;;;;;;7.80;5.10;;;;;;;10.68;87.52;100374.25;5049442;28;20064;-70
2022/11/06 10:54:56;;;;;;;8.00;5.18;;;;;;;10.74;85.52;100367.78;5049186;28;20754;-77
2022/11/06 10:57:34;;;;;;;8.30;5.03;;;;;;;10.75;85.45;100369.50;5038712;28;20139;-74
2022/11/06 11:00:09;;;;;;;8.95;5.28;;;;;;;10.75;85.09;100354.47;5053733;28;20116;-74
2022/11/06 11:02:42;;;;;;;11.20;5.55;;;;;;;10.62;83.77;100363.06;5048281;28;20056;-75
2022/11/06 11:05:15;;;;;;;8.45;5.38;;;;;;;10.41;86.13;100349.03;5052645;28;20049;-69
2022/11/06 11:07:44;;;;;;;9.43;5.47;;;;;;;10.39;86.98;100338.53;5044468;28;20497;-74
2022/11/06 11:10:25;;;;;;;8.23;5.67;;;;;;;10.30;87.01;100335.47;5062392;28;20117;-73
2022/11/06 11:12:53;;;;;;;10.60;5.45;;;;;;;10.18;87.43;100336.88;5066038;28;20117;-74
2022/11/06 11:15:22;;;;;;;9.90;5.45;;;;;;;10.21;87.62;100330.63;5057543;28;20092;-75
2022/11/06 11:18:14;;;;;;;12.65;5.72;;;;;;;10.19;88.29;100334.19;5052840;28;20060;-76
2022/11/06 11:20:47;;;;;;;8.30;5.50;;;;;;;10.21;88.77;100307.66;5054694;28;20441;-73
2022/11/06 11:23:14;;;;;;;6.93;5.32;;;;;;;10.39;89.14;100320.00;5064131;28;20055;-72
2022/11/06 11:25:44;;;;;;;7.68;4.93;;;;;;;10.37;87.52;100286.63;5057290;28;20110;-71
2022/11/06 11:28:28;;;;;;;9.70;5.43;;;;;;;10.46;86.59;100278.22;5055745;28;20045;-72
2022/11/06 11:31:06;;;;;;;7.32;5.22;;;;;;;10.71;87.44;100299.06;5047394;28;20100;-72
2022/11/06 11:33:34;;;;;;;9.05;5.13;;;;;;;10.74;86.10;100267.13;5051470;28;20053;-74
2022/11/06 11:36:04;;;;;;;9.02;5.88;;;;;;;10.95;83.61;100278.44;5057294;28;20113;-78
2022/11/06 11:38:34;;;;;;;8.13;4.97;;;;;;;11.00;83.61;100279.94;5045487;28;20185;-77
2022/11/06 11:41:10;;;;;;;8.15;5.32;;;;;;;10.97;85.35;100272.16;5054449;28;20048;-78
2022/11/06 11:43:37;;;;;;;7.38;4.95;;;;;;;11.03;84.03;100263.00;5050761;28;20059;-73
2022/11/06 11:46:07;;;;;;;9.85;5.10;;;;;;;11.05;84.59;100259.34;5042991;28;20049;-70
2022/11/06 11:48:54;;;;;;;5.60;4.78;;;;;;;11.17;84.72;100244.63;5043451;28;20055;-75